createdAt,value
2023-02-11T00:00:40.203Z,74.39
2023-02-11T00:03:06.726Z,74.53
2023-02-11T00:05:33.090Z,73.98
2023-02-11T00:07:59.396Z,74.18
2023-02-11T00:10:25.694Z,74.49
2023-02-11T00:12:51.988Z,74.19
2023-02-11T00:15:18.312Z,74.22
2023-02-11T00:17:44.641Z,74.58
2023-02-11T00:20:11.033Z,74.09
2023-02-11T00:22:37.373Z,74.10
2023-02-11T00:25:04.349Z,74.12
2023-02-11T00:27:30.647Z,73.77
2023-02-11T00:29:57.049Z,73.50
2023-02-11T00:32:23.353Z,73.64
2023-02-11T00:34:52.647Z,73.99
2023-02-11T00:37:19.058Z,73.85
2023-02-11T00:39:45.467Z,73.83
2023-02-11T00:42:14.988Z,73.70
2023-02-11T00:44:41.384Z,74.94
2023-02-11T00:47:07.685Z,74.40
2023-02-11T00:49:34.040Z,74.42
2023-02-11T00:52:00.402Z,74.57
2023-02-11T00:54:29.041Z,74.21
2023-02-11T00:56:56.294Z,74.47
2023-02-11T00:59:22.623Z,74.34
2023-02-11T01:01:49.042Z,73.88
2023-02-11T01:04:15.369Z,73.99
2023-02-11T01:06:41.661Z,75.00
2023-02-11T01:09:08.069Z,73.92
2023-02-11T01:11:34.578Z,74.13
2023-02-11T01:14:02.539Z,75.07
2023-02-11T01:16:29.038Z,76.11
2023-02-11T01:18:55.497Z,75.63
2023-02-11T01:21:21.832Z,75.27
2023-02-11T01:23:48.146Z,74.59
2023-02-11T01:26:14.475Z,74.53
2023-02-11T01:28:40.768Z,74.42
2023-02-11T01:31:07.233Z,74.25
2023-02-11T01:33:33.958Z,74.71
2023-02-11T01:36:01.883Z,74.47
2023-02-11T01:38:28.495Z,74.75
2023-02-11T01:41:03.621Z,73.93
2023-02-11T01:43:34.119Z,74.13
2023-02-11T01:46:23.403Z,73.58
2023-02-11T01:48:57.361Z,74.02
2023-02-11T01:51:28.852Z,74.09
2023-02-11T01:53:57.111Z,74.56
2023-02-11T01:56:26.965Z,74.03
2023-02-11T01:58:59.056Z,74.28
2023-02-11T02:01:27.578Z,73.98
2023-02-11T02:03:59.716Z,74.01
2023-02-11T02:06:33.284Z,74.20
2023-02-11T02:09:11.234Z,74.33
2023-02-11T02:11:37.822Z,73.95
2023-02-11T02:14:04.236Z,73.93
2023-02-11T02:16:34.895Z,73.84
2023-02-11T02:19:22.474Z,74.29
2023-02-11T02:22:06.110Z,74.19
2023-02-11T02:25:14.048Z,73.88
2023-02-11T02:27:49.355Z,73.11
2023-02-11T02:30:45.095Z,73.80
2023-02-11T02:33:22.658Z,73.03
2023-02-11T02:36:14.307Z,73.23
2023-02-11T02:38:56.096Z,74.95
2023-02-11T02:41:28.362Z,73.31
2023-02-11T02:43:54.966Z,73.47
2023-02-11T02:46:30.648Z,73.60
2023-02-11T02:48:58.417Z,73.71
2023-02-11T02:51:53.934Z,73.50
2023-02-11T02:54:50.558Z,73.66
2023-02-11T02:57:32.328Z,73.68
2023-02-11T03:00:25.777Z,73.32
2023-02-11T03:03:10.121Z,73.51
2023-02-11T03:05:53.671Z,74.45
2023-02-11T03:08:30.453Z,73.98
2023-02-11T03:10:58.860Z,73.38
2023-02-11T03:13:30.727Z,73.29
2023-02-11T03:16:00.687Z,73.65
2023-02-11T03:19:54.589Z,73.54
2023-02-11T03:22:27.452Z,74.10
2023-02-11T03:24:56.334Z,73.95
2023-02-11T03:27:43.761Z,73.85
2023-02-11T03:30:38.556Z,74.05
2023-02-11T03:33:20.017Z,73.94
2023-02-11T03:35:55.922Z,74.08
2023-02-11T03:38:31.619Z,73.52
2023-02-11T03:40:59.857Z,73.40
2023-02-11T03:43:31.937Z,73.90
2023-02-11T03:46:00.077Z,73.10
2023-02-11T03:48:40.102Z,73.53
2023-02-11T03:51:09.625Z,72.94
2023-02-11T03:53:38.219Z,73.49
2023-02-11T03:56:09.191Z,73.46
2023-02-11T03:58:35.491Z,73.08
2023-02-11T04:01:01.872Z,72.88
2023-02-11T04:03:28.509Z,72.29
2023-02-11T04:05:54.841Z,72.31
2023-02-11T04:08:21.258Z,72.90
2023-02-11T04:10:47.553Z,72.67
2023-02-11T04:13:13.850Z,72.50
2023-02-11T04:15:40.151Z,72.48
2023-02-11T04:18:06.547Z,72.72
2023-02-11T04:20:32.969Z,72.24
2023-02-11T04:22:59.330Z,72.10
2023-02-11T04:25:25.690Z,72.39
2023-02-11T04:27:52.080Z,71.88
2023-02-11T04:30:18.436Z,72.00
2023-02-11T04:32:44.795Z,72.51
2023-02-11T04:35:11.185Z,73.05
2023-02-11T04:37:37.822Z,73.09
2023-02-11T04:40:04.607Z,73.71
2023-02-11T04:42:30.903Z,74.37
2023-02-11T04:44:57.330Z,74.69
2023-02-11T04:47:23.854Z,73.87
2023-02-11T04:49:50.179Z,74.10
2023-02-11T04:52:16.497Z,73.81
2023-02-11T04:54:42.805Z,73.50
2023-02-11T04:57:09.103Z,73.69
2023-02-11T04:59:35.519Z,73.33
2023-02-11T05:02:01.828Z,73.17
2023-02-11T05:04:28.229Z,73.12
2023-02-11T05:06:55.656Z,72.90
2023-02-11T05:09:23.388Z,73.73
2023-02-11T05:11:49.848Z,73.06
2023-02-11T05:14:16.177Z,73.54
2023-02-11T05:16:42.527Z,72.97
2023-02-11T05:19:08.916Z,72.77
2023-02-11T05:21:35.195Z,72.28
2023-02-11T05:24:01.492Z,73.06
2023-02-11T05:26:28.031Z,72.58
2023-02-11T05:28:54.360Z,72.88
2023-02-11T05:31:20.697Z,72.87
2023-02-11T05:33:47.104Z,72.68
2023-02-11T05:36:13.453Z,72.42
2023-02-11T05:38:40.096Z,71.99
2023-02-11T05:41:06.839Z,72.43
2023-02-11T05:43:33.413Z,72.47
2023-02-11T05:45:59.778Z,72.20
2023-02-11T05:48:26.185Z,72.32
2023-02-11T05:50:52.512Z,72.83
2023-02-11T05:53:18.808Z,72.32
2023-02-11T05:55:45.636Z,72.94
2023-02-11T05:58:11.935Z,72.66
2023-02-11T06:00:38.326Z,72.67
2023-02-11T06:03:05.221Z,73.02
2023-02-11T06:05:32.256Z,72.99
2023-02-11T06:07:58.972Z,72.62
2023-02-11T06:10:25.721Z,73.23
2023-02-11T06:12:52.201Z,72.34
2023-02-11T06:15:18.483Z,72.47
2023-02-11T06:17:44.795Z,72.50
2023-02-11T06:20:11.847Z,72.34
2023-02-11T06:22:38.186Z,72.00
2023-02-11T06:25:04.845Z,72.89
2023-02-11T06:27:31.376Z,73.17
2023-02-11T06:29:57.709Z,72.70
2023-02-11T06:32:42.859Z,73.24
2023-02-11T06:35:12.044Z,72.93
2023-02-11T06:37:39.403Z,72.36
2023-02-11T06:40:06.091Z,72.93
2023-02-11T06:42:32.409Z,72.49
2023-02-11T06:44:58.725Z,72.65
2023-02-11T06:47:25.163Z,72.68
2023-02-11T06:49:51.522Z,73.23
2023-02-11T06:52:17.802Z,73.04
2023-02-11T06:54:44.122Z,73.10
2023-02-11T06:57:10.433Z,73.03
2023-02-11T06:59:36.721Z,73.01
2023-02-11T07:02:03.117Z,73.04
2023-02-11T07:04:29.561Z,73.20
2023-02-11T07:06:55.907Z,73.35
2023-02-11T07:09:22.198Z,73.35
2023-02-11T07:11:48.492Z,72.85
2023-02-11T07:14:14.797Z,72.66
2023-02-11T07:16:41.138Z,73.17
2023-02-11T07:19:07.621Z,73.01
2023-02-11T07:21:34.193Z,72.55
2023-02-11T07:24:00.490Z,72.50
2023-02-11T07:26:26.957Z,72.23
2023-02-11T07:28:53.628Z,72.86
2023-02-11T07:31:27.953Z,71.98
2023-02-11T07:33:56.501Z,72.18
2023-02-11T07:36:23.379Z,72.33
2023-02-11T07:38:50.245Z,71.99
2023-02-11T07:41:19.963Z,72.06
2023-02-11T07:43:46.680Z,72.07
2023-02-11T07:46:17.012Z,71.75
2023-02-11T07:48:43.409Z,71.60
2023-02-11T07:51:14.528Z,70.44
2023-02-11T07:53:40.980Z,70.11
2023-02-11T07:56:08.981Z,69.56
2023-02-11T07:58:35.771Z,68.85
2023-02-11T08:01:07.675Z,69.52
2023-02-11T08:03:35.144Z,68.52
2023-02-11T08:06:09.721Z,66.48
2023-02-11T08:08:36.325Z,66.57
2023-02-11T08:11:10.675Z,67.58
2023-02-11T08:13:37.904Z,66.16
2023-02-11T08:16:05.151Z,67.76
2023-02-11T08:18:33.109Z,66.99
2023-02-11T08:21:07.317Z,65.84
2023-02-11T08:23:36.505Z,65.55
2023-02-11T08:26:04.279Z,65.46
2023-02-11T08:28:30.676Z,64.45
2023-02-11T08:30:57.186Z,65.45
2023-02-11T08:33:23.506Z,65.01
2023-02-11T08:35:49.792Z,65.10
2023-02-11T08:38:16.138Z,64.14
2023-02-11T08:40:42.413Z,65.26
2023-02-11T08:43:08.687Z,64.68
2023-02-11T08:45:35.094Z,64.25
2023-02-11T08:48:01.409Z,63.29
2023-02-11T08:50:27.908Z,64.58
2023-02-11T08:52:54.205Z,64.66
2023-02-11T08:55:20.495Z,64.76
2023-02-11T08:57:47.685Z,64.70
2023-02-11T09:00:14.855Z,64.56
2023-02-11T09:02:41.237Z,63.78
2023-02-11T09:05:07.998Z,64.39
2023-02-11T09:07:34.280Z,64.19
2023-02-11T09:10:00.707Z,64.57
2023-02-11T09:12:27.103Z,64.38
2023-02-11T09:14:53.387Z,61.92
2023-02-11T09:17:19.773Z,62.37
2023-02-11T09:19:46.091Z,62.40
2023-02-11T09:22:12.421Z,63.99
2023-02-11T09:24:38.714Z,63.70
2023-02-11T09:27:05.900Z,61.83
2023-02-11T09:29:32.255Z,61.50
2023-02-11T09:31:58.699Z,61.42
2023-02-11T09:34:25.044Z,61.53
2023-02-11T09:36:51.466Z,62.08
2023-02-11T09:39:19.159Z,62.29
2023-02-11T09:42:10.565Z,61.10
2023-02-11T09:44:38.033Z,61.71
2023-02-11T09:47:07.565Z,62.03
2023-02-11T09:49:40.713Z,62.49
2023-02-11T09:52:48.249Z,62.25
2023-02-11T09:55:22.549Z,60.59
2023-02-11T09:57:49.212Z,61.08
2023-02-11T10:00:31.552Z,61.37
2023-02-11T10:03:21.197Z,61.29
2023-02-11T10:06:05.486Z,60.55
2023-02-11T10:08:49.482Z,60.72
2023-02-11T10:11:32.671Z,60.16
2023-02-11T10:14:21.921Z,60.91
2023-02-11T10:17:02.245Z,61.09
2023-02-11T10:20:00.331Z,60.70
2023-02-11T10:22:34.983Z,61.71
2023-02-11T10:25:16.491Z,61.06
2023-02-11T10:27:43.075Z,61.30
2023-02-11T10:30:21.872Z,60.56
2023-02-11T10:32:57.567Z,61.07
2023-02-11T10:35:24.539Z,61.66
2023-02-11T10:37:50.934Z,60.07
2023-02-11T10:40:20.872Z,57.96
2023-02-11T10:42:55.559Z,58.04
2023-02-11T10:45:31.997Z,57.45
2023-02-11T10:47:58.484Z,56.56
2023-02-11T10:50:28.285Z,57.11
2023-02-11T10:53:12.154Z,58.52
2023-02-11T10:55:38.689Z,59.27
2023-02-11T10:58:05.634Z,58.90
2023-02-11T11:00:42.223Z,59.05
2023-02-11T11:03:19.391Z,58.86
2023-02-11T11:05:49.162Z,58.51
2023-02-11T11:08:16.804Z,58.77
2023-02-11T11:10:44.621Z,58.26
2023-02-11T11:13:30.319Z,58.39
2023-02-11T11:16:33.175Z,58.17
2023-02-11T11:19:08.618Z,57.32
2023-02-11T11:21:43.932Z,58.04
2023-02-11T11:24:39.913Z,56.80
2023-02-11T11:27:06.878Z,57.72
2023-02-11T11:29:45.703Z,58.58
2023-02-11T11:32:20.604Z,58.25
2023-02-11T11:34:55.823Z,57.84
2023-02-11T11:37:26.956Z,57.74
2023-02-11T11:40:07.696Z,57.82
2023-02-11T11:42:37.312Z,57.83
2023-02-11T11:45:24.854Z,58.13
2023-02-11T11:47:55.821Z,57.97
2023-02-11T11:50:36.700Z,58.84
2023-02-11T11:53:30.701Z,59.98
2023-02-11T11:56:13.668Z,59.48
2023-02-11T11:58:40.129Z,59.33
2023-02-11T12:01:45.390Z,59.70
2023-02-11T12:04:33.436Z,59.69
2023-02-11T12:07:36.976Z,60.12
2023-02-11T12:10:24.560Z,59.93
2023-02-11T12:13:02.294Z,59.81
2023-02-11T12:15:42.755Z,60.22
2023-02-11T12:18:24.276Z,59.94
2023-02-11T12:21:00.093Z,59.79
2023-02-11T12:23:58.291Z,60.24
2023-02-11T12:26:36.047Z,59.98
2023-02-11T12:29:29.968Z,59.37
2023-02-11T12:31:59.254Z,60.05
2023-02-11T12:34:41.097Z,59.36
2023-02-11T12:37:29.229Z,59.18
2023-02-11T12:40:09.016Z,58.99
2023-02-11T12:42:44.568Z,58.86
2023-02-11T12:45:10.800Z,58.56
2023-02-11T12:47:40.095Z,59.11
2023-02-11T12:50:09.301Z,59.21
2023-02-11T12:53:00.577Z,59.59
2023-02-11T12:55:31.070Z,58.81
2023-02-11T12:57:58.538Z,58.75
2023-02-11T13:00:53.025Z,58.68
2023-02-11T13:03:49.839Z,58.49
2023-02-11T13:06:22.424Z,58.50
2023-02-11T13:08:53.657Z,58.27
2023-02-11T13:11:26.988Z,58.23
2023-02-11T13:14:01.877Z,58.69
2023-02-11T13:16:37.156Z,57.98
2023-02-11T13:19:17.604Z,57.32
2023-02-11T13:22:25.212Z,57.79
2023-02-11T13:25:02.039Z,57.75
2023-02-11T13:28:14.525Z,58.00
2023-02-11T13:30:41.177Z,58.33
2023-02-11T13:33:20.027Z,58.49
2023-02-11T13:36:06.558Z,57.95
2023-02-11T13:38:33.602Z,57.84
2023-02-11T13:41:26.566Z,58.11
2023-02-11T13:44:11.151Z,57.39
2023-02-11T13:46:54.803Z,57.68
2023-02-11T13:49:25.569Z,58.19
2023-02-11T13:51:53.501Z,58.31
2023-02-11T13:54:27.120Z,58.81
2023-02-11T13:57:12.109Z,58.81
2023-02-11T13:59:38.389Z,58.94
2023-02-11T14:02:16.755Z,59.34
2023-02-11T14:05:19.160Z,59.58
2023-02-11T14:08:11.493Z,60.26
2023-02-11T14:10:43.559Z,60.83
2023-02-11T14:13:25.218Z,60.68
2023-02-11T14:16:10.892Z,61.00
2023-02-11T14:18:49.225Z,61.25
2023-02-11T14:21:27.615Z,62.98
2023-02-11T14:24:13.943Z,64.07
2023-02-11T14:26:52.095Z,63.40
2023-02-11T14:29:18.341Z,63.82
2023-02-11T14:32:06.591Z,64.55
2023-02-11T14:34:56.013Z,64.54
2023-02-11T14:37:50.931Z,64.28
2023-02-11T14:40:26.686Z,64.74
2023-02-11T14:42:55.133Z,64.47
2023-02-11T14:45:26.838Z,64.01
2023-02-11T14:48:16.078Z,63.73
2023-02-11T14:50:52.761Z,64.81
2023-02-11T14:53:25.832Z,65.08
2023-02-11T14:55:54.212Z,65.24
2023-02-11T14:58:23.255Z,64.94
2023-02-11T15:00:57.681Z,65.05
2023-02-11T15:03:29.979Z,65.67
2023-02-11T15:05:59.277Z,65.88
2023-02-11T15:08:26.669Z,66.10
2023-02-11T15:10:55.234Z,65.59
2023-02-11T15:13:24.552Z,65.54
2023-02-11T15:15:55.558Z,65.05
2023-02-11T15:18:25.276Z,64.98
2023-02-11T15:20:52.236Z,65.55
2023-02-11T15:23:25.995Z,65.38
2023-02-11T15:25:52.479Z,65.99
2023-02-11T15:28:28.197Z,66.02
2023-02-11T15:31:00.780Z,66.23
2023-02-11T15:33:27.918Z,65.70
2023-02-11T15:35:54.203Z,65.64
2023-02-11T15:38:20.623Z,65.88
2023-02-11T15:41:02.197Z,65.59
2023-02-11T15:43:44.892Z,65.43
2023-02-11T15:46:15.485Z,65.72
2023-02-11T15:48:53.566Z,65.94
2023-02-11T15:51:33.123Z,65.60
2023-02-11T15:54:02.522Z,65.94
2023-02-11T15:56:34.786Z,65.79
2023-02-11T15:59:14.305Z,66.52
2023-02-11T16:01:41.162Z,65.47
2023-02-11T16:04:14.638Z,66.62
2023-02-11T16:06:42.935Z,65.52
2023-02-11T16:09:09.165Z,65.39
2023-02-11T16:11:52.784Z,66.06
2023-02-11T16:14:27.175Z,65.51
2023-02-11T16:16:57.749Z,65.86
2023-02-11T16:19:25.927Z,66.15
2023-02-11T16:21:54.699Z,65.91
2023-02-11T16:24:25.978Z,66.00
2023-02-11T16:26:55.457Z,66.22
2023-02-11T16:29:27.926Z,66.28
2023-02-11T16:32:06.464Z,66.61
2023-02-11T16:34:32.855Z,66.31
2023-02-11T16:36:59.238Z,66.27
2023-02-11T16:39:25.511Z,65.57
2023-02-11T16:41:52.267Z,66.45
2023-02-11T16:44:18.716Z,65.44
2023-02-11T16:46:45.532Z,66.47
2023-02-11T16:49:20.442Z,66.27
2023-02-11T16:51:49.916Z,65.36
2023-02-11T16:54:17.482Z,65.81
2023-02-11T16:56:44.389Z,66.43
2023-02-11T16:59:11.135Z,66.20
2023-02-11T17:01:42.424Z,66.32
2023-02-11T17:04:27.133Z,66.45
2023-02-11T17:06:53.972Z,66.13
2023-02-11T17:09:24.042Z,66.09
2023-02-11T17:11:51.145Z,67.10
2023-02-11T17:14:18.596Z,66.46
2023-02-11T17:16:46.536Z,66.86
2023-02-11T17:19:14.963Z,66.71
2023-02-11T17:21:45.859Z,66.81
2023-02-11T17:24:12.834Z,66.65
2023-02-11T17:26:39.172Z,66.50
2023-02-11T17:29:07.190Z,66.73
2023-02-11T17:31:33.861Z,67.13
2023-02-11T17:34:00.399Z,67.16
2023-02-11T17:36:26.707Z,67.56
2023-02-11T17:38:55.081Z,67.75
2023-02-11T17:41:21.402Z,66.70
2023-02-11T17:43:47.708Z,67.35
2023-02-11T17:46:14.260Z,67.69
2023-02-11T17:48:40.620Z,66.68
2023-02-11T17:51:21.837Z,67.36
2023-02-11T17:53:48.265Z,67.01
2023-02-11T17:56:14.641Z,67.31
2023-02-11T17:58:40.933Z,66.86
2023-02-11T18:01:07.466Z,66.96
2023-02-11T18:03:33.909Z,67.26
2023-02-11T18:06:01.548Z,67.69
2023-02-11T18:08:27.860Z,68.06
2023-02-11T18:10:54.292Z,67.17
2023-02-11T18:13:20.780Z,67.16
2023-02-11T18:15:47.105Z,68.07
2023-02-11T18:18:13.835Z,67.68
2023-02-11T18:20:40.582Z,68.15
2023-02-11T18:23:06.900Z,68.86
2023-02-11T18:25:33.245Z,67.94
2023-02-11T18:27:59.625Z,67.95
2023-02-11T18:30:26.340Z,68.41
2023-02-11T18:32:56.064Z,68.58
2023-02-11T18:35:23.108Z,68.48
2023-02-11T18:37:51.021Z,67.22
2023-02-11T18:40:17.559Z,67.67
2023-02-11T18:42:45.547Z,67.64
2023-02-11T18:45:13.418Z,67.75
2023-02-11T18:47:39.921Z,68.05
2023-02-11T18:50:08.450Z,68.13
2023-02-11T18:52:35.463Z,67.84
2023-02-11T18:55:01.759Z,68.05
2023-02-11T18:57:28.186Z,68.37
2023-02-11T18:59:54.704Z,68.51
2023-02-11T19:02:21.086Z,67.62
2023-02-11T19:04:47.518Z,68.27
2023-02-11T19:07:13.824Z,68.42
2023-02-11T19:09:40.113Z,67.47
2023-02-11T19:12:06.618Z,68.32
2023-02-11T19:14:33.255Z,67.52
2023-02-11T19:17:02.430Z,67.96
2023-02-11T19:19:31.802Z,68.06
2023-02-11T19:21:59.477Z,68.57
2023-02-11T19:24:26.576Z,68.97
2023-02-11T19:26:57.033Z,68.70
2023-02-11T19:29:23.667Z,68.29
2023-02-11T19:31:50.160Z,67.72
2023-02-11T19:34:18.310Z,68.06
2023-02-11T19:36:44.595Z,67.95
2023-02-11T19:39:11.152Z,68.51
2023-02-11T19:41:37.913Z,67.73
2023-02-11T19:44:06.167Z,67.61
2023-02-11T19:46:36.286Z,67.67
2023-02-11T19:49:04.185Z,67.56
2023-02-11T19:51:31.468Z,67.70
2023-02-11T19:53:58.698Z,67.32
2023-02-11T19:56:25.042Z,67.89
2023-02-11T19:58:51.358Z,68.21
2023-02-11T20:01:20.697Z,67.37
2023-02-11T20:03:53.991Z,68.30
2023-02-11T20:06:24.102Z,68.66
2023-02-11T20:08:58.869Z,68.35
2023-02-11T20:11:26.256Z,68.25
2023-02-11T20:13:52.552Z,67.79
2023-02-11T20:16:21.609Z,67.90
2023-02-11T20:18:49.586Z,68.25
2023-02-11T20:21:21.537Z,68.27
2023-02-11T20:23:48.708Z,68.91
2023-02-11T20:26:23.760Z,68.78
2023-02-11T20:28:52.055Z,68.69
2023-02-11T20:31:19.313Z,67.92
2023-02-11T20:33:46.459Z,68.47
2023-02-11T20:36:16.245Z,68.72
2023-02-11T20:38:43.052Z,68.04
2023-02-11T20:41:26.804Z,68.43
2023-02-11T20:43:55.021Z,67.78
2023-02-11T20:46:24.472Z,67.76
2023-02-11T20:48:52.146Z,67.64
2023-02-11T20:51:19.658Z,67.78
2023-02-11T20:53:48.197Z,67.97
2023-02-11T20:56:16.007Z,67.48
2023-02-11T20:58:42.849Z,67.23
2023-02-11T21:01:18.703Z,67.39
2023-02-11T21:03:59.472Z,67.60
2023-02-11T21:06:30.361Z,67.01
2023-02-11T21:08:56.680Z,67.95
2023-02-11T21:11:23.556Z,67.13
2023-02-11T21:13:50.315Z,68.06
2023-02-11T21:16:20.086Z,67.69
2023-02-11T21:18:47.507Z,67.75
2023-02-11T21:21:13.872Z,67.45
2023-02-11T21:23:40.282Z,67.56
2023-02-11T21:26:07.609Z,67.72
2023-02-11T21:28:34.567Z,68.14
2023-02-11T21:31:01.723Z,67.79
2023-02-11T21:33:29.160Z,68.32
2023-02-11T21:35:57.266Z,67.82
2023-02-11T21:38:24.995Z,68.58
2023-02-11T21:40:51.735Z,68.57
2023-02-11T21:43:18.317Z,67.65
2023-02-11T21:45:49.940Z,68.43
2023-02-11T21:48:17.233Z,68.48
2023-02-11T21:50:46.893Z,67.99
2023-02-11T21:53:21.227Z,68.47
2023-02-11T21:55:47.528Z,68.29
2023-02-11T21:58:13.835Z,68.02
2023-02-11T22:00:40.326Z,68.21
2023-02-11T22:03:06.692Z,67.86
2023-02-11T22:05:32.999Z,67.64
2023-02-11T22:07:59.394Z,67.64
2023-02-11T22:10:25.698Z,67.73
2023-02-11T22:12:52.061Z,68.21
2023-02-11T22:15:18.441Z,67.91
2023-02-11T22:17:44.723Z,67.59
2023-02-11T22:20:11.790Z,68.06
2023-02-11T22:22:38.098Z,67.94
2023-02-11T22:25:04.541Z,67.87
2023-02-11T22:27:30.968Z,68.53
2023-02-11T22:29:57.259Z,68.50
2023-02-11T22:32:23.544Z,69.18
2023-02-11T22:34:52.174Z,69.39
2023-02-11T22:37:19.582Z,69.26
2023-02-11T22:39:45.945Z,68.46
2023-02-11T22:42:12.325Z,68.94
2023-02-11T22:44:38.631Z,69.11
2023-02-11T22:47:05.009Z,68.93
2023-02-11T22:49:31.348Z,68.41
2023-02-11T22:51:57.765Z,69.11
2023-02-11T22:54:24.217Z,69.07
2023-02-11T22:56:51.608Z,68.67
2023-02-11T22:59:18.247Z,68.85
2023-02-11T23:01:45.404Z,68.59
2023-02-11T23:04:14.188Z,68.38
2023-02-11T23:06:40.675Z,69.26
2023-02-11T23:09:09.772Z,69.60
2023-02-11T23:11:36.317Z,69.66
2023-02-11T23:14:03.022Z,69.89
2023-02-11T23:16:32.981Z,69.23
2023-02-11T23:19:00.964Z,69.10
2023-02-11T23:21:31.100Z,68.64
2023-02-11T23:24:00.075Z,68.47
2023-02-11T23:26:27.663Z,68.71
2023-02-11T23:28:54.187Z,69.11
2023-02-11T23:31:23.939Z,69.25
2023-02-11T23:33:51.222Z,69.12
2023-02-11T23:36:18.702Z,69.46
2023-02-11T23:38:45.439Z,69.15
2023-02-11T23:41:11.986Z,70.11
2023-02-11T23:43:38.379Z,70.34
2023-02-11T23:46:05.319Z,70.52
2023-02-11T23:48:32.152Z,70.63
2023-02-11T23:50:58.480Z,70.13
2023-02-11T23:53:24.772Z,69.83
2023-02-11T23:55:51.083Z,70.36
2023-02-11T23:58:17.391Z,70.41
